• Join FlightAware (Why Join?)
  • Login
  • US Flag 
05:20PM EDT


 

Airport Tracker/Info


-or-


 

Live Flight TrackerFlight Track Log ✈ CSN6088 ✈ 16-Nov-2013 ✈ RKSI / ICN - ZYMD / MDG

Flight Track Log - Related Links

Times and Time Zones

All times are in EST time to prevent confusion due to time zone crossing. See the CSN6088 flight status page for this flight to view local times or setup timezone preferences in your user account.

Time Position Orientation Groundspeed Altitude Reporting Facility
EST Latitude Longitude Course Direction KTS MPH feet Rate Location/Type
11:09PM 37.2460 126.4820 17° North 265 305 10,200  Level FlightAware
11:10PM 37.6175 126.5344 17° North  Level Estimated
11:10PM 37.1960 126.4220 224° Southwest 311 358 11,600  Level FlightAware
11:11PM 37.1630 126.3840 223° Southwest 314 361 13,200 2,940 Climbing FlightAware
11:11PM 37.1370 126.3360 236° Southwest 312 359 14,800 2,820 Climbing FlightAware
11:12PM 37.1340 126.2850 266° West 320 368 16,000 2,400 Climbing FlightAware
11:12PM 37.1340 126.1830 270° West 335 386 18,000 2,160 Climbing FlightAware
11:13PM 37.1330 126.0960 269° West 346 398 19,600 2,040 Climbing FlightAware
11:14PM 37.1420 126.0410 282° West 355 409 20,600 1,380 Climbing FlightAware
11:15PM 37.1680 125.9380 288° West 355 409 21,600 720 Climbing FlightAware
11:15PM 37.1770 125.8970 285° West 355 409 21,600  Level FlightAware
11:16PM 37.1910 125.8370 286° West 355 409 21,600 2,580 Level FlightAware
11:17PM 37.2350 125.7100 294° West 372 428 25,400 2,220 Climbing FlightAware
11:17PM 37.2630 125.6270 293° West 372 428 25,400  Level FlightAware
11:18PM 37.2970 125.5260 293° West 372 428 25,400 2,640 Level FlightAware
11:20PM 37.3820 125.2670 22° Northeast 352 405 32,700 3,600 Climbing FlightAware
11:20PM 37.3890 125.2300 283° West 353 406 32,900 540 Climbing FlightAware
11:21PM 37.4306 125.5927 22° Northeast  Level Estimated
11:21PM 37.3950 125.1030 273° West 359 413 33,500  Level FlightAware
11:22PM 37.3930 125.0110 268° West 366 421 34,100 300 Climbing FlightAware
11:23PM 37.3820 124.8710 264° West 363 418 34,100  Level FlightAware
11:24PM 37.3710 124.8210 255° West 364 419 34,100  Level FlightAware
11:25PM 37.3310 124.7040 247° West 365 420 34,100  Level FlightAware
11:26PM 37.2950 124.6030 246° West 365 420 34,100  Level FlightAware
11:27PM 37.2670 124.5240 246° West 365 420 34,100  Level FlightAware
11:28PM 37.2320 124.4250 246° West 365 420 34,100  Level FlightAware
11:28PM 37.2110 124.3660 246° West 365 420 34,100  Level FlightAware
11:29PM 37.1750 124.2660 246° West 365 420 34,100  Level FlightAware
11:30PM 37.1540 124.2070 246° West 365 420 34,100  Level FlightAware
11:31PM 37.1260 124.1280 246° West 365 420 34,100  Level FlightAware
11:31PM 37.1050 124.0680 246° West 365 420 34,100  Level FlightAware
11:32PM 37.0910 124.0290 246° West 365 420 34,100  Level FlightAware
11:33PM 37.0560 123.9300 246° West 365 420 34,100  Level FlightAware
11:33PM 37.0280 123.8510 246° West 365 420 34,100  Level FlightAware
11:34PM 37.0140 123.8120 246° West 365 420 34,100  Level FlightAware
11:34PM 37.0070 123.7920 246° West 365 420 34,100  Level FlightAware
11:38PM 37.2074 123.9278 28° Northeast  Level Estimated
11:39PM 37.2657 123.9675 28° Northeast  Level Estimated
11:40PM 37.3241 124.0073 28° Northeast  Level Estimated
11:41PM 37.3824 124.0471 28° Northeast  Level Estimated
11:42PM 37.4407 124.0870 29° Northeast  Level Estimated
11:43PM 37.4990 124.1269 29° Northeast  Level Estimated
11:44PM 37.5572 124.1669 29° Northeast  Level Estimated
11:45PM 37.6155 124.2070 29° Northeast  Level Estimated
11:46PM 37.6738 124.2471 29° Northeast  Level Estimated
11:47PM 37.7320 124.2873 29° Northeast  Level Estimated
11:48PM 37.7902 124.3276 29° Northeast  Level Estimated
11:49PM 37.8484 124.3679 29° Northeast  Level Estimated
11:50PM 37.9066 124.4083 29° Northeast  Level Estimated
11:51PM 37.9648 124.4487 29° Northeast  Level Estimated
11:52PM 38.0229 124.4892 29° Northeast  Level Estimated
11:53PM 38.0811 124.5298 29° Northeast  Level Estimated
11:54PM 38.1392 124.5704 29° Northeast  Level Estimated
11:55PM 38.1973 124.6112 29° Northeast  Level Estimated
11:56PM 38.2555 124.6519 29° Northeast  Level Estimated
11:57PM 38.3135 124.6928 29° Northeast  Level Estimated
11:58PM 38.3716 124.7337 29° Northeast  Level Estimated
11:59PM 38.4297 124.7746 29° Northeast  Level Estimated
12:00AM 38.4878 124.8157 29° Northeast  Level Estimated
12:01AM 38.5458 124.8568 29° Northeast  Level Estimated
12:02AM 38.6038 124.8979 29° Northeast  Level Estimated
12:03AM 38.6618 124.9392 29° Northeast  Level Estimated
12:04AM 38.7198 124.9805 29° Northeast  Level Estimated
12:05AM 38.7778 125.0218 29° Northeast  Level Estimated
12:06AM 38.8358 125.0633 29° Northeast  Level Estimated
12:07AM 38.8937 125.1048 29° Northeast  Level Estimated
12:08AM 38.9516 125.1463 29° Northeast  Level Estimated
12:09AM 39.0096 125.1880 29° Northeast  Level Estimated
12:10AM 39.0675 125.2297 29° Northeast  Level Estimated
12:11AM 39.1254 125.2714 29° Northeast  Level Estimated
12:12AM 39.1832 125.3133 29° Northeast  Level Estimated
12:13AM 39.2411 125.3552 29° Northeast  Level Estimated
12:14AM 39.2990 125.3972 29° Northeast  Level Estimated
12:15AM 39.3568 125.4392 29° Northeast  Level Estimated
12:16AM 39.4146 125.4813 29° Northeast  Level Estimated
12:17AM 39.4724 125.5235 29° Northeast  Level Estimated
12:18AM 39.5302 125.5658 29° Northeast  Level Estimated
12:19AM 39.5880 125.6081 29° Northeast  Level Estimated
12:20AM 39.6457 125.6505 29° Northeast  Level Estimated
12:21AM 39.7034 125.6930 30° Northeast  Level Estimated
12:22AM 39.7612 125.7355 30° Northeast  Level Estimated
12:23AM 39.8189 125.7781 30° Northeast  Level Estimated
12:24AM 39.8766 125.8208 30° Northeast  Level Estimated
12:25AM 39.9342 125.8636 30° Northeast  Level Estimated
12:26AM 39.9919 125.9064 30° Northeast  Level Estimated
12:27AM 40.0496 125.9493 30° Northeast  Level Estimated
12:28AM 40.1072 125.9923 30° Northeast  Level Estimated
12:29AM 40.1648 126.0353 30° Northeast  Level Estimated
12:30AM 40.2224 126.0785 30° Northeast  Level Estimated
12:31AM 40.2800 126.1216 30° Northeast  Level Estimated
12:32AM 40.3376 126.1649 30° Northeast  Level Estimated
12:33AM 40.3951 126.2083 30° Northeast  Level Estimated
12:34AM 40.4526 126.2517 30° Northeast  Level Estimated
12:35AM 40.5102 126.2952 30° Northeast  Level Estimated
12:36AM 40.5676 126.3387 30° Northeast  Level Estimated
12:37AM 40.6251 126.3824 30° Northeast  Level Estimated
12:38AM 40.6826 126.4261 30° Northeast  Level Estimated
12:39AM 40.7401 126.4699 30° Northeast  Level Estimated
12:40AM 40.7975 126.5137 30° Northeast  Level Estimated
12:41AM 40.8549 126.5577 30° Northeast  Level Estimated
12:42AM 40.9123 126.6017 30° Northeast  Level Estimated
12:43AM 40.9697 126.6458 30° Northeast  Level Estimated
12:44AM 41.0271 126.6899 30° Northeast  Level Estimated
12:45AM 41.0844 126.7342 30° Northeast  Level Estimated
12:46AM 41.1417 126.7785 30° Northeast  Level Estimated
12:47AM 41.1991 126.8229 30° Northeast  Level Estimated
12:48AM 41.2564 126.8674 30° Northeast  Level Estimated
12:49AM 41.3136 126.9120 30° Northeast  Level Estimated
12:50AM 41.3709 126.9566 30° Northeast  Level Estimated
12:51AM 41.4282 127.0013 30° Northeast  Level Estimated
12:52AM 41.4854 127.0461 30° Northeast  Level Estimated
12:53AM 41.5426 127.0910 30° Northeast  Level Estimated
12:54AM 41.5998 127.1359 30° Northeast  Level Estimated
12:55AM 41.6570 127.1810 30° Northeast  Level Estimated
12:56AM 41.7141 127.2261 31° Northeast  Level Estimated
12:57AM 41.7713 127.2713 31° Northeast  Level Estimated
12:58AM 41.8284 127.3165 31° Northeast  Level Estimated
12:59AM 41.8855 127.3619 31° Northeast  Level Estimated
01:00AM 41.9426 127.4073 31° Northeast  Level Estimated
01:01AM 41.9997 127.4528 31° Northeast  Level Estimated
01:02AM 42.0567 127.4984 31° Northeast  Level Estimated
01:03AM 42.1138 127.5441 31° Northeast  Level Estimated
01:04AM 42.1708 127.5899 31° Northeast  Level Estimated
01:05AM 42.2278 127.6357 31° Northeast  Level Estimated
01:06AM 42.2848 127.6817 31° Northeast  Level Estimated
01:07AM 42.3417 127.7277 31° Northeast  Level Estimated
01:08AM 42.3987 127.7738 31° Northeast  Level Estimated
01:09AM 42.4536 127.8184 31° Northeast  Level Estimated
01:10AM 42.5086 127.8630 31° Northeast  Level Estimated
01:11AM 42.5635 127.9078 31° Northeast  Level Estimated
01:12AM 42.6184 127.9526 31° Northeast  Level Estimated
01:13AM 42.6733 127.9975 31° Northeast  Level Estimated
01:14AM 42.7282 128.0425 31° Northeast  Level Estimated
01:15AM 42.7830 128.0875 31° Northeast  Level Estimated
01:16AM 42.8379 128.1327 31° Northeast  Level Estimated
01:17AM 42.8927 128.1779 31° Northeast  Level Estimated
01:18AM 42.9475 128.2232 31° Northeast  Level Estimated
01:19AM 43.0023 128.2686 31° Northeast  Level Estimated
01:20AM 43.0571 128.3140 31° Northeast  Level Estimated
01:21AM 43.1118 128.3596 31° Northeast  Level Estimated
01:22AM 43.1665 128.4052 31° Northeast  Level Estimated
01:23AM 43.2212 128.4509 31° Northeast  Level Estimated